sensor_id;sensor_type;location;lat;lon;timestamp;P1;durP1;ratioP1;P2;durP2;ratioP2
67715;SDS011;54508;43.238;25.306;2022-10-31T00:01:30;9.77;;;5.30;;
67715;SDS011;54508;43.238;25.306;2022-10-31T00:03:58;11.25;;;5.30;;
67715;SDS011;54508;43.238;25.306;2022-10-31T00:06:24;9.70;;;5.30;;
67715;SDS011;54508;43.238;25.306;2022-10-31T00:08:54;10.45;;;5.13;;
67715;SDS011;54508;43.238;25.306;2022-10-31T00:11:20;12.70;;;6.05;;
67715;SDS011;54508;43.238;25.306;2022-10-31T00:13:46;9.53;;;5.37;;
67715;SDS011;54508;43.238;25.306;2022-10-31T00:16:19;8.23;;;5.32;;
67715;SDS011;54508;43.238;25.306;2022-10-31T00:18:48;10.13;;;5.00;;
67715;SDS011;54508;43.238;25.306;2022-10-31T00:21:17;10.05;;;4.93;;
67715;SDS011;54508;43.238;25.306;2022-10-31T00:23:43;9.55;;;4.75;;
67715;SDS011;54508;43.238;25.306;2022-10-31T00:26:08;9.10;;;4.90;;
67715;SDS011;54508;43.238;25.306;2022-10-31T00:28:34;9.63;;;5.13;;
67715;SDS011;54508;43.238;25.306;2022-10-31T00:31:00;8.10;;;5.10;;
67715;SDS011;54508;43.238;25.306;2022-10-31T00:33:26;9.45;;;5.07;;
67715;SDS011;54508;43.238;25.306;2022-10-31T00:35:52;9.03;;;5.13;;
67715;SDS011;54508;43.238;25.306;2022-10-31T00:38:17;6.00;;;4.05;;
67715;SDS011;54508;43.238;25.306;2022-10-31T00:40:43;8.77;;;4.33;;
67715;SDS011;54508;43.238;25.306;2022-10-31T00:43:08;7.77;;;4.53;;
67715;SDS011;54508;43.238;25.306;2022-10-31T00:45:34;7.70;;;4.57;;
67715;SDS011;54508;43.238;25.306;2022-10-31T00:47:59;8.48;;;4.38;;
67715;SDS011;54508;43.238;25.306;2022-10-31T00:50:24;9.15;;;4.57;;
67715;SDS011;54508;43.238;25.306;2022-10-31T00:52:50;7.43;;;4.47;;
67715;SDS011;54508;43.238;25.306;2022-10-31T00:55:15;9.17;;;4.70;;
67715;SDS011;54508;43.238;25.306;2022-10-31T00:57:41;7.80;;;4.20;;
67715;SDS011;54508;43.238;25.306;2022-10-31T01:00:06;7.90;;;4.70;;
67715;SDS011;54508;43.238;25.306;2022-10-31T01:02:32;8.00;;;4.30;;
67715;SDS011;54508;43.238;25.306;2022-10-31T01:04:58;8.90;;;4.60;;
67715;SDS011;54508;43.238;25.306;2022-10-31T01:07:23;8.18;;;4.18;;
67715;SDS011;54508;43.238;25.306;2022-10-31T01:09:49;7.37;;;4.37;;
67715;SDS011;54508;43.238;25.306;2022-10-31T01:12:14;10.53;;;4.73;;
67715;SDS011;54508;43.238;25.306;2022-10-31T01:14:46;8.00;;;4.30;;
67715;SDS011;54508;43.238;25.306;2022-10-31T01:17:12;7.53;;;4.30;;
67715;SDS011;54508;43.238;25.306;2022-10-31T01:19:38;5.30;;;3.78;;
67715;SDS011;54508;43.238;25.306;2022-10-31T01:22:03;7.63;;;4.47;;
67715;SDS011;54508;43.238;25.306;2022-10-31T01:24:29;6.88;;;4.20;;
67715;SDS011;54508;43.238;25.306;2022-10-31T01:26:54;8.30;;;4.30;;
67715;SDS011;54508;43.238;25.306;2022-10-31T01:29:20;7.03;;;4.30;;
67715;SDS011;54508;43.238;25.306;2022-10-31T01:31:45;7.17;;;5.13;;
67715;SDS011;54508;43.238;25.306;2022-10-31T01:34:14;7.88;;;3.85;;
67715;SDS011;54508;43.238;25.306;2022-10-31T01:36:41;10.07;;;4.00;;
67715;SDS011;54508;43.238;25.306;2022-10-31T01:39:09;6.13;;;4.13;;
67715;SDS011;54508;43.238;25.306;2022-10-31T01:41:37;10.15;;;4.50;;
67715;SDS011;54508;43.238;25.306;2022-10-31T01:46:43;6.03;;;4.13;;
67715;SDS011;54508;43.238;25.306;2022-10-31T01:49:17;6.80;;;4.37;;
67715;SDS011;54508;43.238;25.306;2022-10-31T01:51:45;9.32;;;4.10;;
67715;SDS011;54508;43.238;25.306;2022-10-31T01:54:15;6.95;;;4.47;;
67715;SDS011;54508;43.238;25.306;2022-10-31T01:56:42;8.05;;;4.15;;
67715;SDS011;54508;43.238;25.306;2022-10-31T01:59:10;9.20;;;4.18;;
67715;SDS011;54508;43.238;25.306;2022-10-31T02:01:36;5.87;;;3.80;;
67715;SDS011;54508;43.238;25.306;2022-10-31T02:04:02;6.15;;;4.22;;
67715;SDS011;54508;43.238;25.306;2022-10-31T02:06:38;7.13;;;4.15;;
67715;SDS011;54508;43.238;25.306;2022-10-31T02:09:05;7.93;;;4.07;;
67715;SDS011;54508;43.238;25.306;2022-10-31T02:11:31;6.55;;;3.92;;
67715;SDS011;54508;43.238;25.306;2022-10-31T02:13:58;8.30;;;4.60;;
67715;SDS011;54508;43.238;25.306;2022-10-31T02:16:25;8.20;;;4.28;;
67715;SDS011;54508;43.238;25.306;2022-10-31T02:18:51;6.73;;;4.23;;
67715;SDS011;54508;43.238;25.306;2022-10-31T02:21:24;6.90;;;4.28;;
67715;SDS011;54508;43.238;25.306;2022-10-31T02:24:00;4.77;;;3.70;;
67715;SDS011;54508;43.238;25.306;2022-10-31T02:30:24;9.95;;;4.93;;
67715;SDS011;54508;43.238;25.306;2022-10-31T02:37:57;7.10;;;4.53;;
67715;SDS011;54508;43.238;25.306;2022-10-31T02:40:26;6.35;;;3.95;;
67715;SDS011;54508;43.238;25.306;2022-10-31T02:45:38;7.88;;;4.78;;
67715;SDS011;54508;43.238;25.306;2022-10-31T02:48:09;7.38;;;4.70;;
67715;SDS011;54508;43.238;25.306;2022-10-31T02:50:39;7.70;;;4.27;;
67715;SDS011;54508;43.238;25.306;2022-10-31T02:53:06;8.77;;;4.60;;
67715;SDS011;54508;43.238;25.306;2022-10-31T02:58:34;7.68;;;4.15;;
67715;SDS011;54508;43.238;25.306;2022-10-31T03:03:41;8.85;;;4.30;;
67715;SDS011;54508;43.238;25.306;2022-10-31T03:06:45;6.43;;;4.18;;
67715;SDS011;54508;43.238;25.306;2022-10-31T03:09:28;6.20;;;4.03;;
67715;SDS011;54508;43.238;25.306;2022-10-31T03:12:10;7.63;;;4.47;;
67715;SDS011;54508;43.238;25.306;2022-10-31T03:17:36;7.90;;;4.10;;
67715;SDS011;54508;43.238;25.306;2022-10-31T03:20:03;6.85;;;4.18;;
67715;SDS011;54508;43.238;25.306;2022-10-31T03:22:30;8.23;;;4.60;;
67715;SDS011;54508;43.238;25.306;2022-10-31T03:24:56;6.97;;;4.30;;
67715;SDS011;54508;43.238;25.306;2022-10-31T03:27:23;9.82;;;4.43;;
67715;SDS011;54508;43.238;25.306;2022-10-31T03:29:51;6.10;;;4.07;;
67715;SDS011;54508;43.238;25.306;2022-10-31T03:32:21;8.93;;;4.57;;
67715;SDS011;54508;43.238;25.306;2022-10-31T03:34:49;6.37;;;4.47;;
67715;SDS011;54508;43.238;25.306;2022-10-31T03:37:16;6.45;;;3.92;;
67715;SDS011;54508;43.238;25.306;2022-10-31T03:39:43;7.15;;;4.43;;
67715;SDS011;54508;43.238;25.306;2022-10-31T03:42:15;6.68;;;4.13;;
67715;SDS011;54508;43.238;25.306;2022-10-31T03:44:44;6.05;;;4.18;;
67715;SDS011;54508;43.238;25.306;2022-10-31T03:47:36;6.27;;;4.13;;
67715;SDS011;54508;43.238;25.306;2022-10-31T03:50:04;8.77;;;4.15;;
67715;SDS011;54508;43.238;25.306;2022-10-31T03:57:40;6.22;;;4.45;;
67715;SDS011;54508;43.238;25.306;2022-10-31T04:00:11;7.83;;;4.47;;
67715;SDS011;54508;43.238;25.306;2022-10-31T04:02:39;6.13;;;4.00;;
67715;SDS011;54508;43.238;25.306;2022-10-31T04:05:07;6.13;;;4.35;;
67715;SDS011;54508;43.238;25.306;2022-10-31T04:07:41;6.65;;;4.45;;
67715;SDS011;54508;43.238;25.306;2022-10-31T04:10:09;7.07;;;4.55;;
67715;SDS011;54508;43.238;25.306;2022-10-31T04:12:36;6.67;;;4.30;;
67715;SDS011;54508;43.238;25.306;2022-10-31T04:15:03;6.00;;;3.97;;
67715;SDS011;54508;43.238;25.306;2022-10-31T04:17:31;8.30;;;4.53;;
67715;SDS011;54508;43.238;25.306;2022-10-31T04:19:59;6.80;;;4.22;;
67715;SDS011;54508;43.238;25.306;2022-10-31T04:22:25;7.55;;;4.70;;
67715;SDS011;54508;43.238;25.306;2022-10-31T04:24:50;7.27;;;5.07;;
67715;SDS011;54508;43.238;25.306;2022-10-31T04:27:16;6.60;;;4.33;;
67715;SDS011;54508;43.238;25.306;2022-10-31T04:29:41;7.70;;;4.47;;
67715;SDS011;54508;43.238;25.306;2022-10-31T04:32:07;6.77;;;3.93;;
67715;SDS011;54508;43.238;25.306;2022-10-31T04:34:32;6.05;;;4.57;;
67715;SDS011;54508;43.238;25.306;2022-10-31T04:36:57;6.33;;;4.50;;
67715;SDS011;54508;43.238;25.306;2022-10-31T04:39:23;8.97;;;5.00;;
67715;SDS011;54508;43.238;25.306;2022-10-31T04:41:48;8.37;;;4.57;;
67715;SDS011;54508;43.238;25.306;2022-10-31T04:44:14;7.00;;;4.50;;
67715;SDS011;54508;43.238;25.306;2022-10-31T04:46:40;6.47;;;4.55;;
67715;SDS011;54508;43.238;25.306;2022-10-31T04:49:05;7.50;;;4.43;;
67715;SDS011;54508;43.238;25.306;2022-10-31T04:51:30;6.40;;;4.78;;
67715;SDS011;54508;43.238;25.306;2022-10-31T04:53:56;7.57;;;4.33;;
67715;SDS011;54508;43.238;25.306;2022-10-31T04:56:21;5.50;;;4.33;;
67715;SDS011;54508;43.238;25.306;2022-10-31T04:58:47;5.67;;;4.40;;
67715;SDS011;54508;43.238;25.306;2022-10-31T05:01:12;5.50;;;4.07;;
67715;SDS011;54508;43.238;25.306;2022-10-31T05:03:38;7.10;;;4.22;;
67715;SDS011;54508;43.238;25.306;2022-10-31T05:06:04;6.40;;;3.92;;
67715;SDS011;54508;43.238;25.306;2022-10-31T05:08:30;6.68;;;4.60;;
67715;SDS011;54508;43.238;25.306;2022-10-31T05:10:59;6.32;;;4.07;;
67715;SDS011;54508;43.238;25.306;2022-10-31T05:13:25;6.10;;;4.10;;
67715;SDS011;54508;43.238;25.306;2022-10-31T05:15:51;7.30;;;4.18;;
67715;SDS011;54508;43.238;25.306;2022-10-31T05:18:16;7.67;;;4.20;;
67715;SDS011;54508;43.238;25.306;2022-10-31T05:20:42;6.67;;;4.30;;
67715;SDS011;54508;43.238;25.306;2022-10-31T05:23:07;5.77;;;4.10;;
67715;SDS011;54508;43.238;25.306;2022-10-31T05:25:32;9.00;;;5.20;;
67715;SDS011;54508;43.238;25.306;2022-10-31T05:27:58;8.48;;;4.40;;
67715;SDS011;54508;43.238;25.306;2022-10-31T05:30:25;10.80;;;5.60;;
67715;SDS011;54508;43.238;25.306;2022-10-31T05:32:52;7.72;;;4.35;;
67715;SDS011;54508;43.238;25.306;2022-10-31T05:35:19;7.30;;;4.73;;
67715;SDS011;54508;43.238;25.306;2022-10-31T05:37:45;8.13;;;4.70;;
67715;SDS011;54508;43.238;25.306;2022-10-31T05:40:12;5.67;;;4.63;;
67715;SDS011;54508;43.238;25.306;2022-10-31T05:42:39;6.78;;;4.32;;
67715;SDS011;54508;43.238;25.306;2022-10-31T05:45:15;9.07;;;4.43;;
67715;SDS011;54508;43.238;25.306;2022-10-31T05:47:42;9.07;;;4.72;;
67715;SDS011;54508;43.238;25.306;2022-10-31T05:50:08;9.05;;;4.60;;
67715;SDS011;54508;43.238;25.306;2022-10-31T05:52:34;8.82;;;4.47;;
67715;SDS011;54508;43.238;25.306;2022-10-31T05:54:59;7.23;;;4.73;;
67715;SDS011;54508;43.238;25.306;2022-10-31T05:57:25;7.37;;;4.70;;
67715;SDS011;54508;43.238;25.306;2022-10-31T05:59:50;9.45;;;4.55;;
67715;SDS011;54508;43.238;25.306;2022-10-31T06:02:19;7.43;;;5.10;;
67715;SDS011;54508;43.238;25.306;2022-10-31T06:04:45;8.30;;;4.45;;
67715;SDS011;54508;43.238;25.306;2022-10-31T06:07:10;8.02;;;5.10;;
67715;SDS011;54508;43.238;25.306;2022-10-31T06:09:36;6.68;;;4.60;;
67715;SDS011;54508;43.238;25.306;2022-10-31T06:12:01;10.70;;;5.57;;
67715;SDS011;54508;43.238;25.306;2022-10-31T06:14:27;9.70;;;5.63;;
67715;SDS011;54508;43.238;25.306;2022-10-31T06:16:53;12.23;;;5.67;;
67715;SDS011;54508;43.238;25.306;2022-10-31T06:19:19;20.25;;;9.50;;
67715;SDS011;54508;43.238;25.306;2022-10-31T06:21:45;22.20;;;9.23;;
67715;SDS011;54508;43.238;25.306;2022-10-31T06:24:10;18.02;;;8.90;;
67715;SDS011;54508;43.238;25.306;2022-10-31T06:26:36;31.55;;;10.55;;
67715;SDS011;54508;43.238;25.306;2022-10-31T06:29:01;22.77;;;8.70;;
67715;SDS011;54508;43.238;25.306;2022-10-31T06:31:26;14.43;;;8.10;;
67715;SDS011;54508;43.238;25.306;2022-10-31T06:33:52;14.93;;;8.50;;
67715;SDS011;54508;43.238;25.306;2022-10-31T06:36:17;17.63;;;7.50;;
67715;SDS011;54508;43.238;25.306;2022-10-31T06:38:43;18.02;;;9.82;;
67715;SDS011;54508;43.238;25.306;2022-10-31T06:41:08;34.13;;;20.60;;
67715;SDS011;54508;43.238;25.306;2022-10-31T06:43:34;20.10;;;10.73;;
67715;SDS011;54508;43.238;25.306;2022-10-31T06:46:02;19.77;;;8.60;;
67715;SDS011;54508;43.238;25.306;2022-10-31T06:48:29;17.73;;;8.23;;
67715;SDS011;54508;43.238;25.306;2022-10-31T06:50:57;22.17;;;8.47;;
67715;SDS011;54508;43.238;25.306;2022-10-31T06:53:23;13.35;;;7.65;;
67715;SDS011;54508;43.238;25.306;2022-10-31T06:55:49;20.90;;;8.90;;
67715;SDS011;54508;43.238;25.306;2022-10-31T06:58:14;20.07;;;8.13;;
67715;SDS011;54508;43.238;25.306;2022-10-31T07:00:40;19.98;;;11.13;;
67715;SDS011;54508;43.238;25.306;2022-10-31T07:03:06;24.30;;;8.80;;
67715;SDS011;54508;43.238;25.306;2022-10-31T07:05:34;23.63;;;8.63;;
67715;SDS011;54508;43.238;25.306;2022-10-31T07:08:00;11.23;;;7.63;;
67715;SDS011;54508;43.238;25.306;2022-10-31T07:10:29;17.55;;;7.38;;
67715;SDS011;54508;43.238;25.306;2022-10-31T07:12:56;25.85;;;18.67;;
67715;SDS011;54508;43.238;25.306;2022-10-31T07:15:23;45.88;;;16.13;;
67715;SDS011;54508;43.238;25.306;2022-10-31T07:17:49;19.45;;;8.65;;
67715;SDS011;54508;43.238;25.306;2022-10-31T07:20:15;27.88;;;13.75;;
67715;SDS011;54508;43.238;25.306;2022-10-31T07:22:41;19.53;;;8.60;;
67715;SDS011;54508;43.238;25.306;2022-10-31T07:25:06;11.63;;;7.70;;
67715;SDS011;54508;43.238;25.306;2022-10-31T07:27:38;45.83;;;8.25;;
67715;SDS011;54508;43.238;25.306;2022-10-31T07:30:05;13.73;;;7.80;;
67715;SDS011;54508;43.238;25.306;2022-10-31T07:33:04;21.67;;;7.18;;
67715;SDS011;54508;43.238;25.306;2022-10-31T07:35:24;13.17;;;6.77;;
67715;SDS011;54508;43.238;25.306;2022-10-31T07:37:51;16.85;;;7.20;;
67715;SDS011;54508;43.238;25.306;2022-10-31T07:40:17;18.45;;;6.95;;
67715;SDS011;54508;43.238;25.306;2022-10-31T07:42:48;15.55;;;6.90;;
67715;SDS011;54508;43.238;25.306;2022-10-31T07:45:15;21.10;;;7.50;;
67715;SDS011;54508;43.238;25.306;2022-10-31T07:47:44;28.45;;;16.42;;
67715;SDS011;54508;43.238;25.306;2022-10-31T07:50:13;17.10;;;10.77;;
67715;SDS011;54508;43.238;25.306;2022-10-31T07:52:42;12.75;;;7.03;;
67715;SDS011;54508;43.238;25.306;2022-10-31T07:55:08;11.13;;;7.20;;
67715;SDS011;54508;43.238;25.306;2022-10-31T07:57:34;33.03;;;19.13;;
67715;SDS011;54508;43.238;25.306;2022-10-31T07:59:59;17.33;;;10.13;;
67715;SDS011;54508;43.238;25.306;2022-10-31T08:02:25;15.80;;;7.65;;
67715;SDS011;54508;43.238;25.306;2022-10-31T08:04:51;14.30;;;6.13;;
67715;SDS011;54508;43.238;25.306;2022-10-31T08:07:17;10.65;;;6.47;;
67715;SDS011;54508;43.238;25.306;2022-10-31T08:09:43;13.03;;;6.67;;
67715;SDS011;54508;43.238;25.306;2022-10-31T08:12:08;16.10;;;6.50;;
67715;SDS011;54508;43.238;25.306;2022-10-31T08:14:34;9.00;;;5.40;;
67715;SDS011;54508;43.238;25.306;2022-10-31T08:16:59;9.33;;;5.87;;
67715;SDS011;54508;43.238;25.306;2022-10-31T08:19:24;10.13;;;6.40;;
67715;SDS011;54508;43.238;25.306;2022-10-31T08:21:50;13.32;;;5.75;;
67715;SDS011;54508;43.238;25.306;2022-10-31T08:24:16;11.77;;;6.10;;
67715;SDS011;54508;43.238;25.306;2022-10-31T08:26:42;7.38;;;5.82;;
67715;SDS011;54508;43.238;25.306;2022-10-31T08:29:08;11.77;;;5.73;;
67715;SDS011;54508;43.238;25.306;2022-10-31T08:31:33;13.73;;;5.80;;
67715;SDS011;54508;43.238;25.306;2022-10-31T08:33:59;11.17;;;5.80;;
67715;SDS011;54508;43.238;25.306;2022-10-31T08:36:25;8.95;;;6.32;;
67715;SDS011;54508;43.238;25.306;2022-10-31T08:38:50;12.43;;;6.97;;
67715;SDS011;54508;43.238;25.306;2022-10-31T08:41:15;9.90;;;6.23;;
67715;SDS011;54508;43.238;25.306;2022-10-31T08:43:41;10.10;;;6.37;;
67715;SDS011;54508;43.238;25.306;2022-10-31T08:46:06;8.40;;;5.70;;
67715;SDS011;54508;43.238;25.306;2022-10-31T08:48:32;12.30;;;5.90;;
67715;SDS011;54508;43.238;25.306;2022-10-31T08:50:58;10.50;;;5.53;;
67715;SDS011;54508;43.238;25.306;2022-10-31T08:53:24;10.65;;;5.65;;
67715;SDS011;54508;43.238;25.306;2022-10-31T08:55:50;9.50;;;5.68;;
67715;SDS011;54508;43.238;25.306;2022-10-31T08:58:17;10.60;;;5.40;;
67715;SDS011;54508;43.238;25.306;2022-10-31T09:00:44;8.85;;;5.30;;
67715;SDS011;54508;43.238;25.306;2022-10-31T09:03:13;9.52;;;5.38;;
67715;SDS011;54508;43.238;25.306;2022-10-31T09:05:40;10.25;;;5.70;;
67715;SDS011;54508;43.238;25.306;2022-10-31T09:08:06;10.18;;;5.65;;
67715;SDS011;54508;43.238;25.306;2022-10-31T09:10:33;9.25;;;5.55;;
67715;SDS011;54508;43.238;25.306;2022-10-31T09:13:01;11.40;;;6.00;;
67715;SDS011;54508;43.238;25.306;2022-10-31T09:15:31;9.38;;;6.07;;
67715;SDS011;54508;43.238;25.306;2022-10-31T09:17:57;9.52;;;6.13;;
67715;SDS011;54508;43.238;25.306;2022-10-31T09:20:22;13.17;;;5.53;;
67715;SDS011;54508;43.238;25.306;2022-10-31T09:22:48;11.27;;;6.23;;
67715;SDS011;54508;43.238;25.306;2022-10-31T09:25:20;11.43;;;6.25;;
67715;SDS011;54508;43.238;25.306;2022-10-31T09:27:46;11.10;;;6.10;;
67715;SDS011;54508;43.238;25.306;2022-10-31T09:30:11;16.40;;;5.65;;
67715;SDS011;54508;43.238;25.306;2022-10-31T09:32:37;9.67;;;6.50;;
67715;SDS011;54508;43.238;25.306;2022-10-31T09:35:02;10.87;;;6.57;;
67715;SDS011;54508;43.238;25.306;2022-10-31T09:37:28;12.15;;;6.65;;
67715;SDS011;54508;43.238;25.306;2022-10-31T09:39:53;10.93;;;6.43;;
67715;SDS011;54508;43.238;25.306;2022-10-31T09:55:52;11.10;;;6.18;;
67715;SDS011;54508;43.238;25.306;2022-10-31T09:58:20;8.48;;;5.63;;
67715;SDS011;54508;43.238;25.306;2022-10-31T10:00:48;9.05;;;6.68;;
67715;SDS011;54508;43.238;25.306;2022-10-31T10:06:04;10.98;;;6.28;;
67715;SDS011;54508;43.238;25.306;2022-10-31T10:08:48;10.30;;;6.47;;
67715;SDS011;54508;43.238;25.306;2022-10-31T10:14:34;15.20;;;6.63;;
67715;SDS011;54508;43.238;25.306;2022-10-31T10:33:00;12.45;;;6.68;;
67715;SDS011;54508;43.238;25.306;2022-10-31T10:35:46;13.67;;;7.03;;
67715;SDS011;54508;43.238;25.306;2022-10-31T10:40:51;12.55;;;7.15;;
67715;SDS011;54508;43.238;25.306;2022-10-31T10:48:55;11.57;;;6.60;;
67715;SDS011;54508;43.238;25.306;2022-10-31T10:59:55;13.63;;;8.48;;
67715;SDS011;54508;43.238;25.306;2022-10-31T11:02:24;13.83;;;9.53;;
67715;SDS011;54508;43.238;25.306;2022-10-31T11:04:55;15.52;;;9.55;;
67715;SDS011;54508;43.238;25.306;2022-10-31T11:07:22;13.77;;;8.32;;
67715;SDS011;54508;43.238;25.306;2022-10-31T11:09:47;16.10;;;7.43;;
67715;SDS011;54508;43.238;25.306;2022-10-31T11:12:20;13.10;;;6.55;;
67715;SDS011;54508;43.238;25.306;2022-10-31T11:17:26;15.63;;;6.33;;
67715;SDS011;54508;43.238;25.306;2022-10-31T11:20:20;10.57;;;6.30;;
67715;SDS011;54508;43.238;25.306;2022-10-31T11:23:10;12.60;;;6.40;;
67715;SDS011;54508;43.238;25.306;2022-10-31T11:25:52;14.68;;;6.50;;
67715;SDS011;54508;43.238;25.306;2022-10-31T11:28:19;13.35;;;6.38;;
67715;SDS011;54508;43.238;25.306;2022-10-31T11:33:21;11.38;;;5.80;;
67715;SDS011;54508;43.238;25.306;2022-10-31T11:35:56;10.68;;;6.10;;
67715;SDS011;54508;43.238;25.306;2022-10-31T11:38:23;13.83;;;6.07;;
67715;SDS011;54508;43.238;25.306;2022-10-31T11:40:54;8.60;;;5.13;;
67715;SDS011;54508;43.238;25.306;2022-10-31T11:43:23;12.10;;;6.03;;
67715;SDS011;54508;43.238;25.306;2022-10-31T11:45:49;13.13;;;5.63;;
67715;SDS011;54508;43.238;25.306;2022-10-31T11:48:16;16.05;;;5.85;;
67715;SDS011;54508;43.238;25.306;2022-10-31T11:50:53;9.55;;;5.53;;
67715;SDS011;54508;43.238;25.306;2022-10-31T11:53:30;16.70;;;5.93;;
67715;SDS011;54508;43.238;25.306;2022-10-31T11:56:16;9.98;;;5.82;;
67715;SDS011;54508;43.238;25.306;2022-10-31T11:58:41;11.15;;;5.22;;
67715;SDS011;54508;43.238;25.306;2022-10-31T12:01:20;11.95;;;5.68;;
67715;SDS011;54508;43.238;25.306;2022-10-31T12:06:33;11.43;;;5.70;;
67715;SDS011;54508;43.238;25.306;2022-10-31T12:09:00;13.95;;;5.80;;
67715;SDS011;54508;43.238;25.306;2022-10-31T12:19:10;11.52;;;6.15;;
67715;SDS011;54508;43.238;25.306;2022-10-31T12:24:11;14.45;;;6.55;;
67715;SDS011;54508;43.238;25.306;2022-10-31T12:32:41;8.90;;;5.13;;
67715;SDS011;54508;43.238;25.306;2022-10-31T12:35:30;9.90;;;6.00;;
67715;SDS011;54508;43.238;25.306;2022-10-31T12:44:26;13.65;;;7.47;;
67715;SDS011;54508;43.238;25.306;2022-10-31T12:58:06;22.27;;;10.65;;
67715;SDS011;54508;43.238;25.306;2022-10-31T13:00:35;15.90;;;8.63;;
67715;SDS011;54508;43.238;25.306;2022-10-31T13:03:08;20.30;;;8.55;;
67715;SDS011;54508;43.238;25.306;2022-10-31T13:05:40;12.38;;;8.10;;
67715;SDS011;54508;43.238;25.306;2022-10-31T13:13:45;19.23;;;7.88;;
67715;SDS011;54508;43.238;25.306;2022-10-31T13:16:18;15.27;;;7.45;;
67715;SDS011;54508;43.238;25.306;2022-10-31T13:18:53;12.27;;;7.53;;
67715;SDS011;54508;43.238;25.306;2022-10-31T13:21:26;11.07;;;7.05;;
67715;SDS011;54508;43.238;25.306;2022-10-31T13:23:53;14.68;;;8.00;;
67715;SDS011;54508;43.238;25.306;2022-10-31T13:26:37;16.83;;;7.93;;
67715;SDS011;54508;43.238;25.306;2022-10-31T13:29:27;18.30;;;8.55;;
67715;SDS011;54508;43.238;25.306;2022-10-31T13:31:55;22.90;;;7.95;;
67715;SDS011;54508;43.238;25.306;2022-10-31T13:40:00;15.90;;;6.90;;
67715;SDS011;54508;43.238;25.306;2022-10-31T13:45:22;12.25;;;6.22;;
67715;SDS011;54508;43.238;25.306;2022-10-31T13:47:59;14.02;;;6.30;;
67715;SDS011;54508;43.238;25.306;2022-10-31T13:50:39;11.80;;;6.43;;
67715;SDS011;54508;43.238;25.306;2022-10-31T13:53:40;12.98;;;6.28;;
67715;SDS011;54508;43.238;25.306;2022-10-31T13:58:33;10.40;;;6.50;;
67715;SDS011;54508;43.238;25.306;2022-10-31T14:03:40;12.20;;;7.10;;
67715;SDS011;54508;43.238;25.306;2022-10-31T14:06:07;16.38;;;6.38;;
67715;SDS011;54508;43.238;25.306;2022-10-31T14:08:34;18.65;;;6.40;;
67715;SDS011;54508;43.238;25.306;2022-10-31T14:11:02;14.50;;;6.20;;
67715;SDS011;54508;43.238;25.306;2022-10-31T14:13:32;16.98;;;6.55;;
67715;SDS011;54508;43.238;25.306;2022-10-31T14:16:06;12.82;;;7.13;;
67715;SDS011;54508;43.238;25.306;2022-10-31T14:18:49;19.88;;;7.28;;
67715;SDS011;54508;43.238;25.306;2022-10-31T14:23:48;20.13;;;7.50;;
67715;SDS011;54508;43.238;25.306;2022-10-31T14:26:20;15.18;;;7.93;;
67715;SDS011;54508;43.238;25.306;2022-10-31T14:28:53;29.00;;;8.23;;
67715;SDS011;54508;43.238;25.306;2022-10-31T14:31:37;21.88;;;8.30;;
67715;SDS011;54508;43.238;25.306;2022-10-31T14:42:50;30.52;;;10.23;;
67715;SDS011;54508;43.238;25.306;2022-10-31T14:45:35;27.05;;;9.43;;
67715;SDS011;54508;43.238;25.306;2022-10-31T14:50:58;23.95;;;9.70;;
67715;SDS011;54508;43.238;25.306;2022-10-31T14:56:09;30.73;;;9.07;;
67715;SDS011;54508;43.238;25.306;2022-10-31T14:58:37;18.77;;;9.13;;
67715;SDS011;54508;43.238;25.306;2022-10-31T15:01:07;21.83;;;9.52;;
67715;SDS011;54508;43.238;25.306;2022-10-31T15:03:52;21.05;;;8.65;;
67715;SDS011;54508;43.238;25.306;2022-10-31T15:06:20;19.50;;;8.68;;
67715;SDS011;54508;43.238;25.306;2022-10-31T15:08:51;20.48;;;8.77;;
67715;SDS011;54508;43.238;25.306;2022-10-31T15:11:21;23.42;;;9.18;;
67715;SDS011;54508;43.238;25.306;2022-10-31T15:13:56;31.27;;;10.05;;
67715;SDS011;54508;43.238;25.306;2022-10-31T15:16:24;23.92;;;9.00;;
67715;SDS011;54508;43.238;25.306;2022-10-31T15:19:07;26.83;;;9.27;;
67715;SDS011;54508;43.238;25.306;2022-10-31T15:21:42;21.77;;;9.32;;
67715;SDS011;54508;43.238;25.306;2022-10-31T15:24:10;22.63;;;9.20;;
67715;SDS011;54508;43.238;25.306;2022-10-31T15:26:52;23.08;;;8.48;;
67715;SDS011;54508;43.238;25.306;2022-10-31T15:29:19;18.00;;;8.98;;
67715;SDS011;54508;43.238;25.306;2022-10-31T15:31:53;20.33;;;8.85;;
67715;SDS011;54508;43.238;25.306;2022-10-31T15:36:53;19.10;;;9.15;;
67715;SDS011;54508;43.238;25.306;2022-10-31T15:39:18;17.30;;;8.60;;
67715;SDS011;54508;43.238;25.306;2022-10-31T15:41:54;16.17;;;9.10;;
67715;SDS011;54508;43.238;25.306;2022-10-31T15:44:25;20.47;;;9.00;;
67715;SDS011;54508;43.238;25.306;2022-10-31T15:46:55;17.77;;;9.27;;
67715;SDS011;54508;43.238;25.306;2022-10-31T15:52:10;21.52;;;9.15;;
67715;SDS011;54508;43.238;25.306;2022-10-31T15:54:59;18.02;;;9.60;;
67715;SDS011;54508;43.238;25.306;2022-10-31T15:57:27;17.77;;;9.40;;
67715;SDS011;54508;43.238;25.306;2022-10-31T15:59:52;20.73;;;9.05;;
67715;SDS011;54508;43.238;25.306;2022-10-31T16:02:19;17.45;;;9.70;;
67715;SDS011;54508;43.238;25.306;2022-10-31T16:04:54;16.92;;;9.85;;
67715;SDS011;54508;43.238;25.306;2022-10-31T16:07:22;19.08;;;10.70;;
67715;SDS011;54508;43.238;25.306;2022-10-31T16:09:54;17.50;;;9.57;;
67715;SDS011;54508;43.238;25.306;2022-10-31T16:12:37;15.88;;;10.38;;
67715;SDS011;54508;43.238;25.306;2022-10-31T16:15:16;21.15;;;10.70;;
67715;SDS011;54508;43.238;25.306;2022-10-31T16:17:43;18.50;;;10.10;;
67715;SDS011;54508;43.238;25.306;2022-10-31T16:20:47;19.02;;;10.05;;
67715;SDS011;54508;43.238;25.306;2022-10-31T16:23:02;19.63;;;11.30;;
67715;SDS011;54508;43.238;25.306;2022-10-31T16:25:29;21.30;;;10.55;;
67715;SDS011;54508;43.238;25.306;2022-10-31T16:28:03;18.55;;;10.52;;
67715;SDS011;54508;43.238;25.306;2022-10-31T16:35:56;21.38;;;9.75;;
67715;SDS011;54508;43.238;25.306;2022-10-31T16:38:22;20.38;;;9.18;;
67715;SDS011;54508;43.238;25.306;2022-10-31T16:40:48;23.45;;;9.48;;
67715;SDS011;54508;43.238;25.306;2022-10-31T16:43:15;22.17;;;8.63;;
67715;SDS011;54508;43.238;25.306;2022-10-31T16:45:45;32.90;;;10.10;;
67715;SDS011;54508;43.238;25.306;2022-10-31T16:48:16;28.97;;;10.33;;
67715;SDS011;54508;43.238;25.306;2022-10-31T16:50:46;25.58;;;10.73;;
67715;SDS011;54508;43.238;25.306;2022-10-31T16:53:12;24.77;;;10.45;;
67715;SDS011;54508;43.238;25.306;2022-10-31T16:56:02;22.45;;;10.70;;
67715;SDS011;54508;43.238;25.306;2022-10-31T16:58:28;29.85;;;11.40;;
67715;SDS011;54508;43.238;25.306;2022-10-31T17:00:55;30.27;;;11.20;;
67715;SDS011;54508;43.238;25.306;2022-10-31T17:03:21;26.55;;;10.52;;
67715;SDS011;54508;43.238;25.306;2022-10-31T17:05:47;32.95;;;12.18;;
67715;SDS011;54508;43.238;25.306;2022-10-31T17:08:12;30.73;;;12.17;;
67715;SDS011;54508;43.238;25.306;2022-10-31T17:10:38;28.45;;;11.75;;
67715;SDS011;54508;43.238;25.306;2022-10-31T17:13:05;32.10;;;13.07;;
67715;SDS011;54508;43.238;25.306;2022-10-31T17:15:37;27.58;;;13.13;;
67715;SDS011;54508;43.238;25.306;2022-10-31T17:18:04;24.50;;;11.75;;
67715;SDS011;54508;43.238;25.306;2022-10-31T17:20:30;28.58;;;13.15;;
67715;SDS011;54508;43.238;25.306;2022-10-31T17:22:56;31.40;;;13.27;;
67715;SDS011;54508;43.238;25.306;2022-10-31T17:25:23;27.27;;;13.80;;